Time;durP1;ratioP1;P1;durP2;ratioP2;P2;SDS_P1;SDS_P2;PMS_P1;PMS_P2;Temp;Humidity;BMP_temperature;BMP_pressure;BME280_temperature;BME280_humidity;BME280_pressure;Samples;Min_cycle;Max_cycle;Signal;HPM_P1;HPM_P2
2022/04/07 00:00:20;;;;;;;6.97;6.00;;;;;;;8.41;nan;98682.09;6181209;23;20009;-78
2022/04/07 00:02:46;;;;;;;6.88;6.07;;;;;;;8.39;nan;98674.34;6180854;23;20025;-76
2022/04/07 00:05:12;;;;;;;8.85;5.80;;;;;;;8.32;nan;98673.31;6181842;23;20378;-77
2022/04/07 00:07:37;;;;;;;8.02;6.63;;;;;;;8.28;nan;98677.19;6183547;23;20009;-78
2022/04/07 00:10:04;;;;;;;6.80;6.10;;;;;;;8.27;nan;98667.63;6181712;23;20013;-78
2022/04/07 00:12:32;;;;;;;6.93;6.20;;;;;;;8.28;nan;98663.22;6181773;23;20091;-78
2022/04/07 00:14:59;;;;;;;6.22;5.63;;;;;;;8.29;nan;98663.06;6155095;23;20017;-78
2022/04/07 00:17:25;;;;;;;6.63;5.90;;;;;;;8.30;nan;98658.63;6181598;23;20015;-78
2022/04/07 00:19:51;;;;;;;7.20;6.50;;;;;;;8.31;nan;98652.41;6181079;23;20009;-78
2022/04/07 00:22:17;;;;;;;7.05;5.72;;;;;;;8.34;nan;98650.31;6181288;23;20012;-79
2022/04/07 00:24:43;;;;;;;5.97;5.47;;;;;;;8.36;nan;98647.56;6181396;23;20341;-79
2022/04/07 00:27:09;;;;;;;6.57;5.85;;;;;;;8.35;nan;98636.22;6181978;23;20000;-80
2022/04/07 00:29:34;;;;;;;8.15;6.55;;;;;;;8.30;nan;98638.47;6181670;23;20044;-78
2022/04/07 00:32:03;;;;;;;9.25;6.50;;;;;;;8.21;nan;98629.66;6181020;23;20477;-78
2022/04/07 00:34:29;;;;;;;7.93;6.95;;;;;;;8.11;nan;98643.84;6181144;23;20005;-77
2022/04/07 00:36:55;;;;;;;7.95;7.15;;;;;;;7.87;nan;98640.94;6180909;23;20397;-77
2022/04/07 00:39:21;;;;;;;8.02;7.22;;;;;;;7.66;nan;98644.66;6155210;23;20015;-77
2022/04/07 00:41:46;;;;;;;8.90;7.10;;;;;;;7.59;nan;98648.84;6181056;23;20036;-78
2022/04/07 00:44:12;;;;;;;8.07;6.43;;;;;;;7.43;nan;98648.63;6154803;23;20135;-78
2022/04/07 00:46:38;;;;;;;7.55;6.35;;;;;;;7.36;nan;98647.59;6180953;23;20031;-79
2022/04/07 00:49:04;;;;;;;7.10;6.18;;;;;;;7.31;nan;98645.38;6180998;23;20409;-77
2022/04/07 00:51:30;;;;;;;6.78;6.07;;;;;;;7.19;nan;98641.25;6181442;23;20064;-78
2022/04/07 00:53:57;;;;;;;7.88;7.05;;;;;;;7.18;nan;98628.31;6154740;23;20071;-76
2022/04/07 00:56:23;;;;;;;8.02;6.40;;;;;;;7.14;nan;98632.19;6181197;23;20025;-78
2022/04/07 00:58:49;;;;;;;7.32;6.63;;;;;;;7.14;nan;98634.78;6177769;23;20100;-77
2022/04/07 01:01:18;;;;;;;7.15;6.45;;;;;;;7.14;nan;98627.75;6178925;23;20393;-79
2022/04/07 01:03:43;;;;;;;8.70;6.25;;;;;;;7.17;nan;98624.03;6177548;23;20033;-79
2022/04/07 01:06:09;;;;;;;8.32;6.60;;;;;;;7.13;nan;98617.44;6180904;23;20063;-78
2022/04/07 01:08:34;;;;;;;7.50;6.75;;;;;;;7.17;nan;98624.88;6181427;23;20108;-79
2022/04/07 01:11:00;;;;;;;7.47;6.68;;;;;;;7.19;nan;98614.19;6181229;23;20017;-78
2022/04/07 01:13:49;;;;;;;7.10;6.43;;;;;;;7.11;nan;98611.50;6180849;23;20023;-78
2022/04/07 01:16:16;;;;;;;8.32;6.70;;;;;;;7.08;nan;98601.25;6181395;23;20073;-79
2022/04/07 01:18:44;;;;;;;7.30;6.45;;;;;;;7.08;nan;98603.88;6180722;23;20005;-79
2022/04/07 01:21:11;;;;;;;6.90;6.25;;;;;;;7.10;nan;98605.41;6181074;23;20298;-78
2022/04/07 01:23:39;;;;;;;7.20;6.47;;;;;;;7.09;nan;98616.88;6155242;23;20381;-78
2022/04/07 01:26:05;;;;;;;8.60;6.05;;;;;;;7.10;nan;98615.06;6182195;23;20275;-79
2022/04/07 01:28:31;;;;;;;7.10;6.22;;;;;;;7.12;nan;98610.53;6182086;23;20016;-77
2022/04/07 01:30:57;;;;;;;6.65;6.03;;;;;;;7.16;nan;98604.00;6182283;23;20144;-77
2022/04/07 01:33:23;;;;;;;7.18;5.47;;;;;;;7.17;nan;98606.50;6183013;23;20032;-78
2022/04/07 01:35:50;;;;;;;9.57;6.45;;;;;;;7.20;nan;98590.44;6181294;23;20350;-79
2022/04/07 01:38:16;;;;;;;7.82;6.47;;;;;;;7.21;nan;98593.91;6181102;23;20047;-78
2022/04/07 01:40:43;;;;;;;8.25;6.32;;;;;;;7.19;nan;98594.03;6180411;23;20446;-78
2022/04/07 01:43:11;;;;;;;7.68;6.88;;;;;;;7.06;nan;98596.19;6181097;23;20032;-78
2022/04/07 01:45:37;;;;;;;8.07;6.88;;;;;;;6.94;nan;98603.41;6180591;23;20105;-79
2022/04/07 01:48:03;;;;;;;6.97;6.28;;;;;;;6.81;nan;98605.50;6180832;23;20016;-79
2022/04/07 01:50:31;;;;;;;7.15;6.45;;;;;;;6.77;nan;98598.06;6180781;23;20024;-78
2022/04/07 01:52:57;;;;;;;9.40;6.30;;;;;;;6.75;nan;98600.81;6180505;23;20441;-78
2022/04/07 01:55:23;;;;;;;7.25;6.43;;;;;;;6.71;nan;98609.13;6180479;23;20016;-78
2022/04/07 01:57:49;;;;;;;7.55;6.75;;;;;;;6.70;nan;98608.28;6180427;23;20009;-78
2022/04/07 02:00:17;;;;;;;6.28;5.78;;;;;;;6.59;nan;98608.47;6180685;23;20044;-78
2022/04/07 02:02:42;;;;;;;9.20;5.97;;;;;;;6.48;nan;98611.25;6180254;23;20013;-78
2022/04/07 02:05:09;;;;;;;6.38;5.88;;;;;;;6.40;nan;98608.47;6180566;23;20017;-78
2022/04/07 02:07:36;;;;;;;6.30;5.70;;;;;;;6.24;nan;98613.47;6129618;23;20163;-77
2022/04/07 02:10:04;;;;;;;7.30;5.80;;;;;;;6.24;nan;98605.59;6180553;23;20024;-79
2022/04/07 02:12:29;;;;;;;7.97;7.07;;;;;;;6.18;nan;98607.78;6154518;23;20460;-77
2022/04/07 02:14:56;;;;;;;9.40;8.13;;;;;;;6.22;nan;98612.75;6180194;23;20025;-78
2022/04/07 02:17:22;;;;;;;8.85;7.95;;;;;;;6.21;nan;98606.69;6180800;23;20035;-78
2022/04/07 02:19:52;;;;;;;9.30;6.90;;;;;;;6.14;nan;98595.94;6180360;23;20009;-79
2022/04/07 02:22:21;;;;;;;8.82;7.53;;;;;;;6.16;nan;98596.63;6180228;23;20138;-78
2022/04/07 02:24:48;;;;;;;8.85;8.02;;;;;;;6.11;nan;98601.47;6153831;23;20140;-78
2022/04/07 02:27:14;;;;;;;8.40;7.43;;;;;;;6.08;nan;98601.72;6154252;23;20091;-78
2022/04/07 02:29:42;;;;;;;9.23;6.80;;;;;;;6.11;nan;98606.69;6178449;23;20032;-78
2022/04/07 02:32:08;;;;;;;8.75;7.95;;;;;;;6.18;nan;98611.38;6177951;23;20029;-78
2022/04/07 02:34:33;;;;;;;10.00;7.85;;;;;;;6.25;nan;98617.72;6177879;23;20032;-79
2022/04/07 02:36:59;;;;;;;8.23;7.45;;;;;;;6.27;nan;98610.53;6178861;23;20013;-79
2022/04/07 02:39:24;;;;;;;8.77;7.85;;;;;;;6.21;nan;98621.56;6180686;23;20010;-79
2022/04/07 02:41:50;;;;;;;7.55;6.85;;;;;;;6.09;nan;98613.84;6129182;23;20005;-77
2022/04/07 02:44:18;;;;;;;7.38;6.75;;;;;;;5.99;nan;98618.28;6180500;23;20017;-78
2022/04/07 02:46:43;;;;;;;6.63;6.03;;;;;;;5.96;nan;98602.81;6180256;23;20409;-78
2022/04/07 02:49:09;;;;;;;7.00;6.28;;;;;;;5.98;nan;98594.84;6180916;23;20017;-78
2022/04/07 02:51:35;;;;;;;8.98;6.13;;;;;;;5.94;nan;98594.28;6154371;23;20004;-78
2022/04/07 02:54:00;;;;;;;7.57;6.88;;;;;;;5.88;nan;98602.69;6180089;23;20013;-79
2022/04/07 02:56:27;;;;;;;6.43;5.60;;;;;;;5.78;nan;98609.66;6180508;23;20072;-78
2022/04/07 02:58:53;;;;;;;7.05;6.38;;;;;;;5.77;nan;98613.25;6180634;23;20395;-78
2022/04/07 03:01:19;;;;;;;7.43;6.38;;;;;;;5.73;nan;98611.84;6182625;23;20060;-79
2022/04/07 03:03:45;;;;;;;7.55;6.07;;;;;;;5.82;nan;98613.69;6182320;23;20063;-78
2022/04/07 03:06:11;;;;;;;6.88;6.18;;;;;;;5.91;nan;98619.91;6182814;23;20013;-77
2022/04/07 03:08:37;;;;;;;7.63;5.80;;;;;;;5.88;nan;98620.19;6181966;23;20012;-78
2022/04/07 03:11:05;;;;;;;7.47;6.57;;;;;;;5.85;nan;98621.25;6182094;23;20349;-78
2022/04/07 03:13:31;;;;;;;6.88;6.07;;;;;;;5.85;nan;98623.03;6182212;23;20016;-78
2022/04/07 03:15:57;;;;;;;6.85;6.25;;;;;;;5.51;nan;98627.78;6181823;23;20017;-78
2022/04/07 03:18:22;;;;;;;6.05;5.55;;;;;;;5.31;nan;98621.66;6182355;23;20361;-78
2022/04/07 03:20:48;;;;;;;6.72;6.03;;;;;;;5.30;nan;98620.03;6182264;23;20009;-79
2022/04/07 03:23:13;;;;;;;9.07;6.30;;;;;;;5.35;nan;98607.38;6181996;23;20426;-78
2022/04/07 03:25:39;;;;;;;7.10;6.45;;;;;;;5.44;nan;98598.69;6181651;23;20020;-78
2022/04/07 03:28:06;;;;;;;6.93;6.15;;;;;;;5.52;nan;98605.91;6181848;23;20009;-78
2022/04/07 03:30:32;;;;;;;6.43;5.90;;;;;;;5.53;nan;98600.53;6155319;23;20074;-76
2022/04/07 03:32:58;;;;;;;6.70;6.00;;;;;;;5.54;nan;98606.56;6181405;23;20029;-77
2022/04/07 03:35:24;;;;;;;8.48;7.15;;;;;;;5.51;nan;98617.31;6181964;23;20013;-78
2022/04/07 03:37:50;;;;;;;8.50;7.60;;;;;;;5.33;nan;98620.56;6181525;23;20079;-78
2022/04/07 03:40:16;;;;;;;8.23;7.47;;;;;;;5.27;nan;98615.88;6181506;23;20430;-78
2022/04/07 03:42:41;;;;;;;11.13;7.07;;;;;;;5.31;nan;98606.78;6181283;23;20101;-78
2022/04/07 03:45:07;;;;;;;9.82;7.50;;;;;;;5.35;nan;98613.44;6181444;23;20033;-78
2022/04/07 03:47:32;;;;;;;11.80;8.95;;;;;;;5.38;nan;98606.25;6182004;23;20016;-77
2022/04/07 03:49:58;;;;;;;11.18;9.27;;;;;;;5.44;nan;98605.72;6181573;23;20387;-78
2022/04/07 03:52:23;;;;;;;10.25;9.10;;;;;;;5.52;nan;98592.81;6155340;23;20084;-77
2022/04/07 03:54:49;;;;;;;11.63;8.88;;;;;;;5.54;nan;98596.09;6154265;23;20041;-78
2022/04/07 03:57:15;;;;;;;12.68;9.30;;;;;;;5.52;nan;98614.56;6181549;23;20013;-78
2022/04/07 03:59:42;;;;;;;9.68;8.68;;;;;;;5.26;nan;98618.59;6181083;23;20320;-78
2022/04/07 04:02:09;;;;;;;11.75;10.05;;;;;;;5.21;nan;98621.63;6181662;23;20009;-78
2022/04/07 04:04:35;;;;;;;12.93;10.27;;;;;;;5.18;nan;98640.22;6181603;23;20039;-78
2022/04/07 04:07:01;;;;;;;14.20;9.40;;;;;;;5.02;nan;98626.75;6181740;23;20009;-79
2022/04/07 04:09:26;;;;;;;12.73;10.10;;;;;;;5.04;nan;98608.34;6181810;23;20018;-79
2022/04/07 04:11:52;;;;;;;11.20;10.13;;;;;;;5.08;nan;98610.56;6180150;23;20068;-74
2022/04/07 04:14:18;;;;;;;10.40;8.85;;;;;;;5.05;nan;98617.84;6180935;23;20033;-74
2022/04/07 04:16:44;;;;;;;11.35;9.13;;;;;;;4.99;nan;98619.19;6181004;23;20013;-73
2022/04/07 04:19:10;;;;;;;10.50;8.45;;;;;;;4.99;nan;98611.34;6155222;23;20005;-73
2022/04/07 04:21:36;;;;;;;9.23;8.32;;;;;;;5.05;nan;98626.53;6181846;23;20009;-74
2022/04/07 04:24:02;;;;;;;9.60;8.45;;;;;;;5.03;nan;98612.72;6181041;23;20025;-74
2022/04/07 04:26:28;;;;;;;10.90;8.48;;;;;;;4.96;nan;98603.75;6181049;23;20508;-73
2022/04/07 04:28:53;;;;;;;9.07;8.18;;;;;;;5.00;nan;98604.34;6180467;23;20429;-74
2022/04/07 04:31:20;;;;;;;11.38;9.00;;;;;;;5.02;nan;98610.25;6181423;23;20056;-74
2022/04/07 04:33:46;;;;;;;12.90;8.80;;;;;;;4.97;nan;98618.47;6180646;23;20016;-73
2022/04/07 04:36:11;;;;;;;10.32;8.50;;;;;;;4.84;nan;98615.25;6181105;23;20013;-72
2022/04/07 04:38:37;;;;;;;10.75;9.65;;;;;;;4.83;nan;98617.03;6181069;23;20143;-73
2022/04/07 04:41:02;;;;;;;10.73;8.88;;;;;;;4.73;nan;98617.94;6181032;23;20074;-74
2022/04/07 04:43:28;;;;;;;9.55;8.55;;;;;;;4.58;nan;98621.84;6181240;23;20027;-72
2022/04/07 04:45:53;;;;;;;9.13;8.10;;;;;;;4.51;nan;98624.97;6154101;23;20008;-73
2022/04/07 04:48:19;;;;;;;9.32;8.45;;;;;;;4.56;nan;98623.75;6179485;23;20284;-74
2022/04/07 04:50:44;;;;;;;9.82;8.80;;;;;;;4.68;nan;98623.56;6154049;23;20013;-74
2022/04/07 04:53:10;;;;;;;10.48;7.97;;;;;;;4.74;nan;98622.22;6181036;23;20092;-74
2022/04/07 04:55:36;;;;;;;9.57;8.07;;;;;;;4.75;nan;98624.72;6180900;23;20013;-73
2022/04/07 04:58:01;;;;;;;8.40;7.53;;;;;;;4.71;nan;98623.28;6177185;23;20454;-73
2022/04/07 05:00:27;;;;;;;8.73;7.88;;;;;;;4.76;nan;98623.75;6176637;23;20059;-72
2022/04/07 05:02:52;;;;;;;8.68;7.78;;;;;;;4.74;nan;98617.00;6180406;23;20067;-74
2022/04/07 05:05:18;;;;;;;14.30;9.82;;;;;;;4.77;nan;98620.16;6179287;23;20058;-73
2022/04/07 05:07:43;;;;;;;11.23;10.07;;;;;;;4.85;nan;98614.28;6181023;23;20080;-76
2022/04/07 05:10:09;;;;;;;11.88;10.68;;;;;;;4.79;nan;98614.81;6181289;23;20036;-75
2022/04/07 05:12:34;;;;;;;18.75;11.85;;;;;;;4.71;nan;98619.88;6181310;23;20063;-75
2022/04/07 05:15:00;;;;;;;14.25;10.07;;;;;;;4.69;nan;98614.75;6180563;23;20497;-75
2022/04/07 05:17:25;;;;;;;11.95;10.25;;;;;;;4.76;nan;98617.69;6179483;23;20017;-74
2022/04/07 05:19:50;;;;;;;13.65;10.55;;;;;;;4.84;nan;98628.31;6178490;23;20016;-75
2022/04/07 05:22:18;;;;;;;14.20;11.07;;;;;;;4.91;nan;98635.53;6150379;23;20040;-75
2022/04/07 05:24:43;;;;;;;14.93;12.02;;;;;;;5.00;nan;98631.31;6177172;23;20063;-75
2022/04/07 05:27:09;;;;;;;14.23;11.90;;;;;;;5.11;nan;98631.22;6178422;23;20013;-74
2022/04/07 05:29:35;;;;;;;15.23;11.02;;;;;;;5.21;nan;98634.69;6177867;23;20071;-74
2022/04/07 05:32:00;;;;;;;15.82;10.98;;;;;;;5.29;nan;98640.13;6176326;23;20035;-74
2022/04/07 05:34:26;;;;;;;15.82;11.43;;;;;;;5.34;nan;98637.94;6151421;23;20472;-74
2022/04/07 05:36:51;;;;;;;12.80;10.23;;;;;;;5.44;nan;98647.59;6184073;23;20017;-74
2022/04/07 05:39:17;;;;;;;13.82;11.20;;;;;;;5.47;nan;98647.34;6157098;23;20026;-75
2022/04/07 05:41:42;;;;;;;13.77;10.95;;;;;;;5.53;nan;98646.81;6162631;23;20079;-75
2022/04/07 05:44:07;;;;;;;14.48;11.65;;;;;;;5.57;nan;98642.94;6185670;23;20158;-75
2022/04/07 05:46:33;;;;;;;15.55;11.13;;;;;;;5.61;nan;98633.88;6182800;23;20052;-75
2022/04/07 05:48:59;;;;;;;15.10;11.27;;;;;;;5.64;nan;98633.59;6179850;23;20013;-75
2022/04/07 05:51:25;;;;;;;16.70;10.80;;;;;;;5.68;nan;98635.00;6178014;23;20380;-75
2022/04/07 05:53:50;;;;;;;15.30;11.07;;;;;;;5.61;nan;98633.88;6177340;23;20024;-74
2022/04/07 05:56:16;;;;;;;16.17;11.55;;;;;;;5.56;nan;98633.44;6179684;23;20024;-76
2022/04/07 05:58:41;;;;;;;15.60;11.57;;;;;;;5.46;nan;98635.22;6180290;23;20349;-76
2022/04/07 06:01:06;;;;;;;16.90;12.05;;;;;;;5.48;nan;98641.16;6180344;23;20016;-75
2022/04/07 06:03:32;;;;;;;12.77;11.38;;;;;;;5.43;nan;98638.06;6180706;23;20008;-76
2022/04/07 06:05:58;;;;;;;14.95;11.45;;;;;;;5.43;nan;98640.69;6180462;23;20508;-76
2022/04/07 06:08:24;;;;;;;13.50;11.38;;;;;;;5.35;nan;98633.53;6154401;23;20033;-75
2022/04/07 06:10:49;;;;;;;13.77;11.80;;;;;;;5.16;nan;98638.66;6180585;23;20032;-74
2022/04/07 06:13:15;;;;;;;16.92;11.52;;;;;;;5.08;nan;98641.94;6180718;23;20016;-75
2022/04/07 06:15:41;;;;;;;19.67;11.40;;;;;;;4.99;nan;98637.50;6180141;23;20013;-75
2022/04/07 06:18:07;;;;;;;13.25;11.57;;;;;;;4.91;nan;98645.16;6180497;23;20023;-77
2022/04/07 06:20:33;;;;;;;18.08;11.52;;;;;;;4.88;nan;98645.41;6180648;23;20036;-75
2022/04/07 06:23:00;;;;;;;18.30;13.23;;;;;;;5.02;nan;98641.63;6180985;23;20092;-76
2022/04/07 06:25:26;;;;;;;16.58;11.50;;;;;;;5.21;nan;98631.25;6181154;23;20019;-77
2022/04/07 06:27:52;;;;;;;17.17;11.50;;;;;;;5.43;nan;98635.47;6153424;23;20013;-76
2022/04/07 06:30:19;;;;;;;16.33;12.00;;;;;;;5.67;nan;98638.56;6179833;23;20013;-76
2022/04/07 06:32:46;;;;;;;17.27;12.50;;;;;;;5.88;nan;98639.34;6179932;23;20013;-75
2022/04/07 06:35:13;;;;;;;13.68;11.05;;;;;;;6.03;nan;98653.69;6182433;23;20016;-75
2022/04/07 06:37:48;;;;;;;17.30;10.95;;;;;;;6.13;nan;98657.13;6182375;23;20045;-74
2022/04/07 06:40:14;;;;;;;16.13;12.10;;;;;;;6.21;nan;98647.78;6182561;23;20013;-75
2022/04/07 06:42:39;;;;;;;17.52;11.90;;;;;;;6.32;nan;98645.00;6181799;23;20087;-76
2022/04/07 06:45:05;;;;;;;15.68;11.60;;;;;;;6.40;nan;98642.53;6181912;23;20005;-74
2022/04/07 06:47:39;;;;;;;15.30;11.23;;;;;;;6.45;nan;98645.56;6182000;23;20496;-75
2022/04/07 06:50:06;;;;;;;15.70;11.25;;;;;;;6.49;nan;98644.31;6182069;23;20253;-73
2022/04/07 06:52:32;;;;;;;14.00;11.70;;;;;;;6.49;nan;98649.56;6182263;23;20128;-75
2022/04/07 06:54:57;;;;;;;15.00;12.18;;;;;;;6.52;nan;98647.50;6181766;23;20713;-75
2022/04/07 06:57:25;;;;;;;18.95;12.25;;;;;;;6.65;nan;98646.38;6182267;23;20040;-75
2022/04/07 06:59:51;;;;;;;12.30;10.73;;;;;;;6.82;nan;98649.13;6181384;23;20067;-75
2022/04/07 07:02:16;;;;;;;13.50;11.35;;;;;;;6.93;nan;98646.34;6182321;23;20445;-75
2022/04/07 07:04:42;;;;;;;13.15;11.13;;;;;;;7.15;nan;98639.09;6181764;23;20013;-76
2022/04/07 07:07:07;;;;;;;13.20;11.02;;;;;;;7.38;nan;98640.38;6155292;23;20038;-77
2022/04/07 07:09:32;;;;;;;11.77;10.43;;;;;;;7.53;nan;98638.94;6181537;23;20009;-75
2022/04/07 07:11:58;;;;;;;16.45;11.77;;;;;;;7.69;nan;98639.13;6180457;23;20012;-75
2022/04/07 07:14:23;;;;;;;13.60;11.05;;;;;;;7.78;nan;98647.91;6180753;23;20013;-77
2022/04/07 07:16:49;;;;;;;13.95;10.82;;;;;;;7.80;nan;98636.28;6180756;23;20009;-75
2022/04/07 07:19:16;;;;;;;12.80;11.43;;;;;;;7.93;nan;98630.69;6154455;23;20319;-76
2022/04/07 07:21:41;;;;;;;11.93;10.40;;;;;;;8.12;nan;98624.47;6180718;23;20007;-75
2022/04/07 07:24:07;;;;;;;14.40;10.02;;;;;;;8.28;nan;98629.88;6177278;23;20108;-76
2022/04/07 07:26:33;;;;;;;13.65;11.05;;;;;;;8.48;nan;98630.56;6153060;23;20100;-76
2022/04/07 07:28:59;;;;;;;13.40;9.95;;;;;;;8.68;nan;98620.69;6178308;23;20379;-75
2022/04/07 07:31:24;;;;;;;11.20;10.00;;;;;;;8.90;nan;98626.25;6156354;23;20013;-76
2022/04/07 07:33:50;;;;;;;12.38;10.65;;;;;;;9.06;nan;98630.81;6155145;23;20021;-76
2022/04/07 07:36:15;;;;;;;13.70;10.40;;;;;;;9.19;nan;98625.13;6183322;23;20091;-74
2022/04/07 07:38:41;;;;;;;12.30;9.93;;;;;;;9.36;nan;98627.69;6181495;23;20017;-75
2022/04/07 07:41:06;;;;;;;10.88;9.90;;;;;;;9.48;nan;98615.06;6182772;23;20081;-76
2022/04/07 07:43:32;;;;;;;11.68;10.48;;;;;;;9.56;nan;98619.53;6181646;23;20315;-75
2022/04/07 07:45:57;;;;;;;11.75;10.60;;;;;;;9.69;nan;98612.00;6179162;23;20055;-75
2022/04/07 07:48:27;;;;;;;11.73;10.63;;;;;;;9.85;nan;98617.31;6181385;23;20017;-77
2022/04/07 07:50:52;;;;;;;12.10;10.98;;;;;;;10.04;nan;98619.66;6180283;23;20020;-76
2022/04/07 07:53:18;;;;;;;12.23;10.13;;;;;;;10.21;nan;98621.38;6182096;23;20009;-77
2022/04/07 07:55:44;;;;;;;15.73;11.10;;;;;;;-144.47;100.00;61586.06;6182029;23;20374;-76
2022/04/07 07:58:10;;;;;;;12.68;10.57;;;;;;;-144.47;100.00;61586.06;6182594;23;20005;-76
2022/04/07 08:00:36;;;;;;;18.88;11.63;;;;;;;-144.47;100.00;61586.06;6181114;23;20415;-76
2022/04/07 08:03:02;;;;;;;17.83;11.95;;;;;;;-144.47;100.00;61586.06;6181947;23;20015;-75
2022/04/07 08:05:27;;;;;;;12.35;11.15;;;;;;;-144.47;100.00;61586.06;6156013;23;20071;-75
2022/04/07 08:07:52;;;;;;;17.55;11.38;;;;;;;-144.47;100.00;61586.06;6155879;23;20009;-77
2022/04/07 08:10:18;;;;;;;14.32;11.15;;;;;;;-144.47;100.00;61586.06;6180725;23;20013;-75
2022/04/07 08:12:43;;;;;;;12.32;10.88;;;;;;;-144.47;100.00;61586.06;6180714;23;20012;-76
2022/04/07 08:15:09;;;;;;;13.32;11.98;;;;;;;-144.47;100.00;61586.06;6180172;23;20001;-77
2022/04/07 08:17:35;;;;;;;11.80;10.57;;;;;;;-144.47;100.00;61586.06;6180607;23;20009;-75
2022/04/07 08:20:02;;;;;;;13.70;11.43;;;;;;;-144.47;100.00;61586.06;6179957;23;20024;-76
2022/04/07 08:22:27;;;;;;;15.80;12.02;;;;;;;-144.47;100.00;61586.06;6153792;23;20071;-76
2022/04/07 08:24:55;;;;;;;11.93;10.75;;;;;;;-144.47;100.00;61586.06;6180204;23;20009;-75
2022/04/07 08:27:21;;;;;;;15.35;11.65;;;;;;;-144.47;100.00;61586.06;6179845;23;20020;-74
2022/04/07 08:29:47;;;;;;;11.48;10.38;;;;;;;-144.47;100.00;61586.06;6180158;23;20310;-75
2022/04/07 08:32:12;;;;;;;15.48;12.30;;;;;;;-144.47;100.00;61586.06;6180411;23;20106;-76
2022/04/07 08:34:38;;;;;;;12.55;11.35;;;;;;;-144.47;100.00;61586.06;6180547;23;20108;-75
2022/04/07 08:37:04;;;;;;;14.70;11.30;;;;;;;-144.47;100.00;61586.06;6180605;23;20024;-75
2022/04/07 08:39:29;;;;;;;11.13;10.02;;;;;;;-144.47;100.00;61586.06;6180478;23;20024;-76
2022/04/07 08:41:56;;;;;;;11.25;10.00;;;;;;;-144.47;100.00;61586.06;6180058;23;20310;-77
2022/04/07 08:44:23;;;;;;;11.43;10.05;;;;;;;-144.47;100.00;61586.06;6181007;23;20005;-76
2022/04/07 08:46:56;;;;;;;12.80;9.93;;;;;;;-144.47;100.00;61586.06;6180021;23;20013;-76
2022/04/07 08:49:23;;;;;;;11.93;10.70;;;;;;;-144.47;100.00;61586.06;6180624;23;20013;-78
2022/04/07 08:51:52;;;;;;;11.70;10.55;;;;;;;-144.47;100.00;61586.06;6180112;23;20013;-75
2022/04/07 08:54:22;;;;;;;11.68;10.57;;;;;;;-144.47;100.00;61586.06;6179842;23;20391;-74
2022/04/07 08:56:48;;;;;;;10.57;9.55;;;;;;;-144.47;100.00;61586.06;6179388;23;20122;-86
2022/04/07 08:59:14;;;;;;;11.45;10.35;;;;;;;-144.47;100.00;61586.06;6186300;23;20021;-82
2022/04/07 09:01:40;;;;;;;10.60;9.57;;;;;;;-144.47;100.00;61586.06;6193538;23;20090;-81
2022/04/07 09:04:05;;;;;;;10.32;9.45;;;;;;;-144.47;100.00;61586.06;6167025;23;20048;-84
2022/04/07 09:06:34;;;;;;;10.20;9.27;;;;;;;-144.47;100.00;61586.06;6196130;23;20031;-85
2022/04/07 09:09:18;;;;;;;10.90;9.68;;;;;;;-144.47;100.00;61586.06;6179339;23;20039;-85
2022/04/07 09:11:44;;;;;;;16.83;10.13;;;;;;;-144.47;100.00;61586.06;6184969;23;20009;-83
2022/04/07 09:14:11;;;;;;;10.57;9.57;;;;;;;-144.47;100.00;61586.06;6183672;23;20005;-81
2022/04/07 09:16:38;;;;;;;11.73;10.07;;;;;;;-144.47;100.00;61586.06;6184602;23;20151;-82
2022/04/07 09:19:04;;;;;;;11.98;10.23;;;;;;;-144.47;100.00;61586.06;6183913;23;20012;-82
2022/04/07 09:21:34;;;;;;;10.73;9.68;;;;;;;-144.47;100.00;61586.06;6197801;23;20001;-82
2022/04/07 09:24:00;;;;;;;11.50;10.10;;;;;;;-144.47;100.00;61586.06;6189379;23;20067;-81
2022/04/07 09:26:29;;;;;;;11.07;9.50;;;;;;;-144.47;100.00;61586.06;6194420;23;20464;-81
2022/04/07 09:28:58;;;;;;;13.60;9.85;;;;;;;-144.47;100.00;61586.06;6190968;23;20012;-80
2022/04/07 09:31:24;;;;;;;10.98;9.60;;;;;;;-144.47;100.00;61586.06;6185194;23;20013;-82
2022/04/07 09:33:54;;;;;;;11.80;9.60;;;;;;;-144.47;100.00;61586.06;6157518;23;20105;-81
2022/04/07 09:36:22;;;;;;;10.95;9.63;;;;;;;-144.47;100.00;61586.06;6183873;23;20009;-82
2022/04/07 09:38:51;;;;;;;12.75;9.68;;;;;;;-144.47;100.00;61586.06;6183274;23;20013;-81
2022/04/07 09:41:19;;;;;;;9.80;8.88;;;;;;;-144.47;100.00;61586.06;6183750;23;20036;-83
2022/04/07 09:43:58;;;;;;;11.38;8.80;;;;;;;-144.47;100.00;61586.06;6155737;23;20023;-83
2022/04/07 09:46:31;;;;;;;9.27;8.07;;;;;;;-144.47;100.00;61586.06;6182926;23;20037;-81
2022/04/07 09:49:03;;;;;;;9.45;8.57;;;;;;;-144.47;100.00;61586.06;6182432;23;20013;-82
2022/04/07 09:51:29;;;;;;;9.48;8.18;;;;;;;-144.47;100.00;61586.06;6183071;23;20438;-81
2022/04/07 09:53:56;;;;;;;9.30;7.70;;;;;;;-144.47;100.00;61586.06;6182666;23;20024;-81
2022/04/07 09:56:27;;;;;;;9.82;7.35;;;;;;;-144.47;100.00;61586.06;6183198;23;20036;-82
2022/04/07 09:58:54;;;;;;;7.90;7.20;;;;;;;-144.47;100.00;61586.06;6180670;23;20016;-82
2022/04/07 10:01:19;;;;;;;7.38;6.65;;;;;;;-144.47;100.00;61586.06;6155426;23;20108;-80
2022/04/07 10:03:47;;;;;;;10.88;6.93;;;;;;;-144.47;100.00;61586.06;6181150;23;20441;-81
2022/04/07 10:06:15;;;;;;;7.80;6.93;;;;;;;-144.47;100.00;61586.06;6181437;23;20016;-83
2022/04/07 10:08:41;;;;;;;8.48;6.15;;;;;;;-144.47;100.00;61586.06;6180347;23;20020;-82
2022/04/07 10:11:07;;;;;;;7.28;6.60;;;;;;;-144.47;100.00;61586.06;6180805;23;20056;-81
2022/04/07 10:13:33;;;;;;;7.07;6.47;;;;;;;-144.47;100.00;61586.06;6184078;23;20425;-84
2022/04/07 10:15:59;;;;;;;6.63;6.13;;;;;;;-144.47;100.00;61586.06;6183721;23;20028;-83
2022/04/07 10:18:33;;;;;;;6.28;5.68;;;;;;;-144.47;100.00;61586.06;6183179;23;20017;-82
2022/04/07 10:21:00;;;;;;;6.50;5.18;;;;;;;-144.47;100.00;61586.06;6181556;23;20028;-80
2022/04/07 10:23:35;;;;;;;6.00;4.82;;;;;;;-144.47;100.00;61586.06;6181628;23;20036;-81
2022/04/07 10:26:03;;;;;;;5.03;4.63;;;;;;;-144.47;100.00;61586.06;6180875;23;20008;-83
2022/04/07 10:28:29;;;;;;;5.50;4.57;;;;;;;-144.47;100.00;61586.06;6176922;23;20514;-83
2022/04/07 10:30:54;;;;;;;10.35;4.90;;;;;;;-144.47;100.00;61586.06;6180625;23;20040;-83
2022/04/07 10:33:39;;;;;;;5.68;4.50;;;;;;;-144.47;100.00;61586.06;6184912;23;20028;-84
2022/04/07 10:36:19;;;;;;;4.05;3.58;;;;;;;-144.47;100.00;61586.06;6187726;23;20108;-82
2022/04/07 10:38:47;;;;;;;3.72;3.42;;;;;;;-144.47;100.00;61586.06;6184955;23;20407;-83
2022/04/07 10:41:38;;;;;;;3.72;3.03;;;;;;;-144.47;100.00;61586.06;6158677;23;20028;-83
2022/04/07 10:44:20;;;;;;;3.30;3.00;;;;;;;-144.47;100.00;61586.06;6156785;23;20017;-83
2022/04/07 10:46:46;;;;;;;5.03;2.65;;;;;;;-144.47;100.00;61586.06;6157759;23;20415;-84
2022/04/07 10:49:19;;;;;;;3.67;2.72;;;;;;;-144.47;100.00;61586.06;6182504;23;20006;-84
2022/04/07 10:51:49;;;;;;;3.50;2.70;;;;;;;-144.47;100.00;61586.06;6156889;23;20476;-85
2022/04/07 10:54:15;;;;;;;4.07;2.60;;;;;;;-144.47;100.00;61586.06;6189818;23;20065;-84
2022/04/07 10:57:01;;;;;;;4.80;2.50;;;;;;;-144.47;100.00;61586.06;6148938;23;1111435;-83
2022/04/07 10:59:28;;;;;;;3.05;1.98;;;;;;;-144.47;100.00;61586.06;6204704;23;20005;-83
2022/04/07 11:01:56;;;;;;;2.13;2.03;;;;;;;-144.47;100.00;61586.06;6180256;23;20024;-82
2022/04/07 11:04:22;;;;;;;2.22;1.83;;;;;;;-144.47;100.00;61586.06;6202106;23;20009;-82
2022/04/07 11:07:13;;;;;;;1.88;1.70;;;;;;;-144.47;100.00;61586.06;6192891;23;20504;-82
2022/04/07 11:09:45;;;;;;;2.67;1.65;;;;;;;-144.47;100.00;61586.06;6192263;23;20005;-82
2022/04/07 11:12:15;;;;;;;2.75;1.70;;;;;;;-144.47;100.00;61586.06;6187432;23;20025;-84
2022/04/07 11:14:43;;;;;;;2.15;1.92;;;;;;;-144.47;100.00;61586.06;6185597;23;20353;-84
2022/04/07 11:17:13;;;;;;;1.92;1.50;;;;;;;-144.47;100.00;61586.06;6192565;23;20020;-84
2022/04/07 11:19:39;;;;;;;;;;;;;;;-144.47;100.00;61586.06;6205231;23;20039;-83
2022/04/07 11:22:09;;;;;;;2.80;1.40;;;;;;;-144.47;100.00;61586.06;6155267;23;19900;-82
2022/04/07 11:24:41;;;;;;;;;;;;;;;-144.47;100.00;61586.06;6207207;23;20068;-82
2022/04/07 11:27:36;;;;;;;2.08;1.50;;;;;;;-144.47;100.00;61586.06;6205916;23;20229;-82
2022/04/07 11:30:04;;;;;;;1.48;1.17;;;;;;;-144.47;100.00;61586.06;6175972;23;20072;-82
2022/04/07 11:32:30;;;;;;;1.90;1.52;;;;;;;-144.47;100.00;61586.06;6206823;23;20005;-81
2022/04/07 11:34:58;;;;;;;1.10;1.00;;;;;;;-144.47;100.00;61586.06;6186900;23;20013;-83